createdAt,value
2022-11-10T00:01:08.883Z,9.90
2022-11-10T00:03:59.547Z,9.90
2022-11-10T00:06:49.211Z,9.90
2022-11-10T00:09:38.211Z,9.90
2022-11-10T00:12:25.229Z,9.90
2022-11-10T00:15:31.121Z,9.90
2022-11-10T00:18:18.819Z,9.90
2022-11-10T00:21:09.137Z,9.80
2022-11-10T00:23:56.248Z,9.80
2022-11-10T00:26:44.543Z,9.80
2022-11-10T00:29:34.139Z,9.80
2022-11-10T00:32:20.701Z,9.80
2022-11-10T00:35:08.119Z,9.80
2022-11-10T00:37:55.282Z,9.80
2022-11-10T00:40:42.276Z,9.80
2022-11-10T00:43:31.169Z,9.70
2022-11-10T00:46:21.235Z,9.70
2022-11-10T00:49:10.275Z,9.70
2022-11-10T00:51:56.561Z,9.70
2022-11-10T00:54:43.885Z,9.70
2022-11-10T00:57:30.767Z,9.70
2022-11-10T01:00:21.451Z,9.70
2022-11-10T01:03:09.035Z,9.70
2022-11-10T01:05:56.277Z,9.60
2022-11-10T01:08:43.725Z,9.60
2022-11-10T01:11:30.873Z,9.60
2022-11-10T01:14:17.569Z,9.60
2022-11-10T01:17:06.248Z,9.60
2022-11-10T01:19:53.298Z,9.60
2022-11-10T01:22:40.687Z,9.60
2022-11-10T01:25:28.277Z,9.70
2022-11-10T01:28:15.291Z,9.70
2022-11-10T01:31:09.525Z,9.60
2022-11-10T01:34:00.245Z,9.60
2022-11-10T01:36:50.178Z,9.60
2022-11-10T01:39:37.242Z,9.70
2022-11-10T01:42:27.179Z,9.70
2022-11-10T01:45:50.418Z,9.70
2022-11-10T01:48:45.266Z,9.60
2022-11-10T01:51:41.294Z,9.70
2022-11-10T01:54:33.295Z,9.70
2022-11-10T01:57:22.312Z,9.70
2022-11-10T02:00:10.236Z,9.70
2022-11-10T02:03:03.186Z,9.70
2022-11-10T02:05:52.285Z,9.70
2022-11-10T02:08:44.739Z,9.80
2022-11-10T02:11:37.232Z,9.80
2022-11-10T02:14:25.704Z,9.80
2022-11-10T02:17:13.539Z,9.80
2022-11-10T02:20:02.186Z,9.80
2022-11-10T02:22:50.422Z,9.80
2022-11-10T02:25:36.957Z,9.80
2022-11-10T02:28:24.369Z,9.90
2022-11-10T02:34:23.639Z,9.90
2022-11-10T02:37:10.802Z,9.90
2022-11-10T02:39:59.287Z,9.90
2022-11-10T02:42:46.199Z,9.90
2022-11-10T02:45:32.628Z,9.90
2022-11-10T02:48:20.224Z,9.90
2022-11-10T02:51:07.308Z,9.90
2022-11-10T02:53:57.947Z,10.00
2022-11-10T02:56:49.329Z,10.00
2022-11-10T02:59:36.364Z,10.00
2022-11-10T03:02:25.486Z,9.90
2022-11-10T03:05:16.370Z,9.90
2022-11-10T03:08:03.985Z,9.90
2022-11-10T03:10:55.256Z,9.90
2022-11-10T03:14:01.041Z,9.90
2022-11-10T03:16:52.861Z,9.90
2022-11-10T03:19:39.547Z,9.90
2022-11-10T03:22:28.209Z,9.90
2022-11-10T03:25:15.256Z,9.90
2022-11-10T03:28:02.113Z,9.90
2022-11-10T03:30:50.317Z,9.90
2022-11-10T03:33:36.730Z,10.00
2022-11-10T03:36:23.958Z,10.00
2022-11-10T03:39:11.311Z,10.00
2022-11-10T03:41:58.230Z,10.00
2022-11-10T03:44:45.341Z,10.00
2022-11-10T03:47:39.382Z,10.10
2022-11-10T03:50:26.311Z,10.00
2022-11-10T03:53:16.366Z,9.90
2022-11-10T03:56:03.257Z,10.00
2022-11-10T03:58:50.247Z,10.00
2022-11-10T04:01:37.367Z,10.00
2022-11-10T04:04:45.616Z,10.00
2022-11-10T04:07:50.464Z,9.90
2022-11-10T04:10:38.357Z,9.90
2022-11-10T04:13:43.157Z,9.90
2022-11-10T04:16:30.350Z,10.00
2022-11-10T04:19:17.053Z,9.90
2022-11-10T04:22:08.333Z,10.00
2022-11-10T04:24:58.380Z,9.90
2022-11-10T04:27:45.247Z,10.00
2022-11-10T04:30:32.113Z,9.90
2022-11-10T04:33:19.564Z,9.90
2022-11-10T04:36:08.329Z,9.80
2022-11-10T04:38:59.512Z,9.90
2022-11-10T04:41:47.013Z,9.90
2022-11-10T04:44:35.679Z,9.90
2022-11-10T04:47:21.943Z,9.80
2022-11-10T04:50:10.357Z,9.80
2022-11-10T04:52:56.835Z,9.80
2022-11-10T04:55:47.382Z,9.80
2022-11-10T04:58:36.934Z,9.80
2022-11-10T05:01:26.418Z,9.80
2022-11-10T05:04:13.213Z,9.90
2022-11-10T05:06:59.629Z,9.80
2022-11-10T05:09:50.437Z,9.80
2022-11-10T05:12:38.297Z,9.80
2022-11-10T05:15:25.814Z,9.70
2022-11-10T05:18:12.403Z,9.80
2022-11-10T05:20:59.338Z,9.70
2022-11-10T05:23:46.662Z,9.70
2022-11-10T05:26:34.197Z,9.60
2022-11-10T05:29:21.761Z,9.60
2022-11-10T05:32:08.158Z,9.60
2022-11-10T05:34:54.640Z,9.60
2022-11-10T05:37:41.616Z,9.60
2022-11-10T05:40:32.000Z,9.70
2022-11-10T05:43:26.664Z,9.60
2022-11-10T05:46:14.470Z,9.70
2022-11-10T05:49:00.769Z,9.70
2022-11-10T05:51:47.608Z,9.70
2022-11-10T05:54:34.038Z,9.70
2022-11-10T05:57:23.325Z,9.80
2022-11-10T06:00:11.136Z,9.70
2022-11-10T06:03:01.045Z,9.70
2022-11-10T06:05:47.929Z,9.70
2022-11-10T06:08:34.576Z,9.70
2022-11-10T06:11:21.506Z,9.70
2022-11-10T06:14:15.269Z,9.60
2022-11-10T06:17:01.722Z,9.60
2022-11-10T06:19:50.446Z,9.60
2022-11-10T06:22:36.867Z,9.60
2022-11-10T06:25:23.359Z,9.70
2022-11-10T06:28:11.485Z,9.70
2022-11-10T06:30:59.407Z,9.80
2022-11-10T06:33:46.084Z,9.80
2022-11-10T06:36:33.568Z,9.80
2022-11-10T06:39:21.451Z,9.80
2022-11-10T06:42:07.726Z,9.80
2022-11-10T06:44:55.275Z,9.80
2022-11-10T06:47:42.002Z,9.80
2022-11-10T06:50:29.242Z,9.80
2022-11-10T06:53:18.448Z,9.80
2022-11-10T06:56:09.470Z,9.80
2022-11-10T06:58:59.507Z,9.90
2022-11-10T07:01:46.060Z,9.90
2022-11-10T07:04:32.976Z,10.00
2022-11-10T07:07:19.258Z,10.00
2022-11-10T07:10:08.005Z,10.00
2022-11-10T07:13:02.442Z,10.00
2022-11-10T07:15:51.590Z,10.00
2022-11-10T07:18:38.485Z,10.20
2022-11-10T07:21:25.480Z,10.20
2022-11-10T07:24:11.942Z,10.10
2022-11-10T07:27:00.267Z,10.10
2022-11-10T07:29:47.209Z,10.10
2022-11-10T07:32:34.072Z,10.10
2022-11-10T07:35:22.450Z,10.10
2022-11-10T07:38:10.956Z,10.10
2022-11-10T07:40:58.427Z,10.10
2022-11-10T07:43:47.323Z,10.10
2022-11-10T07:46:38.445Z,10.10
2022-11-10T07:49:25.464Z,10.20
2022-11-10T07:52:11.785Z,10.20
2022-11-10T07:54:58.722Z,10.20
2022-11-10T07:57:47.573Z,10.20
2022-11-10T08:00:36.452Z,10.20
2022-11-10T08:03:24.694Z,10.20
2022-11-10T08:06:11.788Z,10.30
2022-11-10T08:08:58.692Z,10.40
2022-11-10T08:11:45.358Z,10.40
2022-11-10T08:14:32.374Z,10.50
2022-11-10T08:17:20.189Z,10.40
2022-11-10T08:20:09.207Z,10.40
2022-11-10T08:22:59.838Z,10.40
2022-11-10T08:25:46.842Z,10.30
2022-11-10T08:28:35.013Z,10.40
2022-11-10T08:31:21.344Z,10.40
2022-11-10T08:34:09.873Z,10.40
2022-11-10T08:36:56.251Z,10.40
2022-11-10T08:39:43.240Z,10.50
2022-11-10T08:42:30.025Z,10.50
2022-11-10T08:45:19.493Z,10.50
2022-11-10T08:48:08.713Z,10.50
2022-11-10T08:51:00.490Z,10.50
2022-11-10T08:53:47.454Z,10.60
2022-11-10T08:56:33.740Z,10.60
2022-11-10T08:59:24.108Z,10.60
2022-11-10T09:02:12.459Z,10.70
2022-11-10T09:04:59.563Z,10.60
2022-11-10T09:07:49.364Z,10.70
2022-11-10T09:10:38.479Z,10.60
2022-11-10T09:13:29.978Z,10.70
2022-11-10T09:16:18.101Z,10.70
2022-11-10T09:19:05.474Z,10.70
2022-11-10T09:21:51.847Z,10.70
2022-11-10T09:24:40.667Z,10.70
2022-11-10T09:27:27.403Z,10.60
2022-11-10T09:30:17.938Z,10.70
2022-11-10T09:33:04.850Z,10.70
2022-11-10T09:35:57.467Z,10.70
2022-11-10T09:38:44.256Z,10.80
2022-11-10T09:41:32.489Z,10.70
2022-11-10T09:44:24.498Z,10.80
2022-11-10T09:47:18.967Z,10.80
2022-11-10T09:50:23.001Z,10.90
2022-11-10T09:53:16.409Z,10.80
2022-11-10T09:56:05.508Z,10.90
2022-11-10T09:58:54.496Z,11.00
2022-11-10T10:01:49.456Z,11.00
2022-11-10T10:04:57.684Z,11.00
2022-11-10T10:07:53.420Z,11.00
2022-11-10T10:10:44.616Z,11.00
2022-11-10T10:13:56.388Z,11.10
2022-11-10T10:16:52.512Z,11.10
2022-11-10T10:19:46.571Z,11.10
2022-11-10T10:22:49.017Z,11.10
2022-11-10T10:25:39.864Z,11.20
2022-11-10T10:28:30.603Z,11.30
2022-11-10T10:31:21.402Z,11.20
2022-11-10T10:34:14.514Z,11.30
2022-11-10T10:37:00.913Z,11.30
2022-11-10T10:39:53.012Z,11.30
2022-11-10T10:42:39.999Z,11.40
2022-11-10T10:45:29.077Z,11.40
2022-11-10T10:48:31.623Z,11.40
2022-11-10T10:51:32.519Z,11.40
2022-11-10T10:54:28.601Z,11.40
2022-11-10T10:57:23.715Z,11.40
2022-11-10T11:00:21.615Z,11.50
2022-11-10T11:03:15.564Z,11.50
2022-11-10T11:06:06.265Z,11.50
2022-11-10T11:09:03.617Z,11.50
2022-11-10T11:12:02.356Z,11.50
2022-11-10T11:14:48.911Z,11.60
2022-11-10T11:17:35.703Z,11.60
2022-11-10T11:20:30.531Z,11.70
2022-11-10T11:23:38.691Z,11.70
2022-11-10T11:26:41.456Z,11.70
2022-11-10T11:29:52.549Z,11.80
2022-11-10T11:33:05.518Z,11.80
2022-11-10T11:35:59.293Z,11.80
2022-11-10T11:38:55.271Z,11.80
2022-11-10T11:41:51.806Z,11.80
2022-11-10T11:44:59.488Z,11.80
2022-11-10T11:48:01.511Z,11.90
2022-11-10T11:50:56.084Z,11.80
2022-11-10T11:53:59.116Z,11.90
2022-11-10T11:56:50.956Z,11.90
2022-11-10T11:59:59.524Z,11.90
2022-11-10T12:02:59.546Z,11.90
2022-11-10T12:05:55.687Z,12.00
2022-11-10T12:08:53.362Z,12.00
2022-11-10T12:12:01.527Z,12.00
2022-11-10T12:14:55.204Z,12.00
2022-11-10T12:17:51.550Z,11.90
2022-11-10T12:20:49.579Z,11.90
2022-11-10T12:23:44.099Z,12.00
2022-11-10T12:26:42.343Z,12.00
2022-11-10T12:29:37.128Z,12.00
2022-11-10T12:32:27.352Z,12.00
2022-11-10T12:35:19.015Z,12.00
2022-11-10T12:38:09.343Z,12.10
2022-11-10T12:41:04.571Z,12.10
2022-11-10T12:44:04.007Z,12.00
2022-11-10T12:46:56.832Z,12.10
2022-11-10T12:49:54.100Z,12.00
2022-11-10T12:52:47.654Z,12.00
2022-11-10T12:55:39.642Z,12.00
2022-11-10T12:58:28.762Z,12.00
2022-11-10T13:01:19.516Z,12.00
2022-11-10T13:04:11.490Z,12.00
2022-11-10T13:07:01.390Z,12.10
2022-11-10T13:09:48.586Z,12.10
2022-11-10T13:12:35.575Z,12.10
2022-11-10T13:15:48.563Z,12.10
2022-11-10T13:19:01.149Z,12.00
2022-11-10T13:22:11.177Z,12.00
2022-11-10T13:25:31.697Z,12.00
2022-11-10T13:28:56.619Z,12.00
2022-11-10T13:31:54.515Z,12.00
2022-11-10T13:34:41.532Z,11.90
2022-11-10T13:37:50.793Z,11.90
2022-11-10T13:40:44.410Z,12.00
2022-11-10T13:43:31.655Z,12.00
2022-11-10T13:46:19.583Z,12.00
2022-11-10T13:49:39.505Z,12.00
2022-11-10T13:52:35.580Z,12.00
2022-11-10T13:55:42.465Z,11.90
2022-11-10T13:58:33.163Z,11.90
2022-11-10T14:01:33.015Z,11.90
2022-11-10T14:04:42.987Z,11.90
2022-11-10T14:07:32.582Z,11.90
2022-11-10T14:10:28.640Z,11.90
2022-11-10T14:13:20.042Z,11.80
2022-11-10T14:16:17.552Z,11.80
2022-11-10T14:19:19.489Z,11.80
2022-11-10T14:22:16.854Z,11.90
2022-11-10T14:25:08.633Z,11.90
2022-11-10T14:27:58.745Z,11.90
2022-11-10T14:30:54.507Z,11.80
2022-11-10T14:33:41.628Z,11.80
2022-11-10T14:36:27.891Z,11.70
2022-11-10T14:39:18.369Z,11.70
2022-11-10T14:42:06.489Z,11.60
2022-11-10T14:45:08.864Z,11.60
2022-11-10T14:47:57.602Z,11.50
2022-11-10T14:50:44.252Z,11.50
2022-11-10T14:53:38.571Z,11.50
2022-11-10T14:56:33.384Z,11.40
2022-11-10T14:59:21.710Z,11.30
2022-11-10T15:02:15.036Z,11.30
2022-11-10T15:05:02.401Z,11.30
2022-11-10T15:07:52.575Z,11.20
2022-11-10T15:10:47.824Z,11.20
2022-11-10T15:13:38.196Z,11.10
2022-11-10T15:16:27.398Z,11.10
2022-11-10T15:19:27.624Z,11.00
2022-11-10T15:22:19.639Z,11.00
2022-11-10T15:25:16.655Z,11.00
2022-11-10T15:28:18.539Z,11.00
2022-11-10T15:31:09.531Z,10.90
2022-11-10T15:33:58.185Z,11.00
2022-11-10T15:36:45.589Z,11.00
2022-11-10T15:39:32.407Z,11.00
2022-11-10T15:42:21.544Z,11.00
2022-11-10T15:45:09.697Z,11.00
2022-11-10T15:47:58.572Z,11.10
2022-11-10T15:50:50.253Z,11.10
2022-11-10T15:53:40.699Z,11.10
2022-11-10T15:56:31.470Z,11.10
2022-11-10T15:59:18.444Z,11.00
2022-11-10T16:02:10.538Z,11.00
2022-11-10T16:05:00.106Z,11.00
2022-11-10T16:07:47.686Z,11.00
2022-11-10T16:10:38.445Z,11.00
2022-11-10T16:13:27.609Z,10.90
2022-11-10T16:16:16.528Z,10.90
2022-11-10T16:19:03.803Z,10.90
2022-11-10T16:21:51.700Z,10.90
2022-11-10T16:24:40.031Z,10.90
2022-11-10T16:27:29.368Z,10.90
2022-11-10T16:30:16.687Z,10.90
2022-11-10T16:33:03.067Z,10.90
2022-11-10T16:35:51.866Z,10.90
2022-11-10T16:38:39.824Z,10.90
2022-11-10T16:41:26.774Z,10.90
2022-11-10T16:44:14.286Z,11.00
2022-11-10T16:47:00.746Z,11.00
2022-11-10T16:49:49.165Z,10.90
2022-11-10T16:52:35.650Z,10.90
2022-11-10T16:55:24.167Z,10.90
2022-11-10T16:58:10.606Z,10.90
2022-11-10T17:01:03.686Z,10.90
2022-11-10T17:03:53.585Z,10.90
2022-11-10T17:06:40.377Z,10.90
2022-11-10T17:09:27.285Z,10.90
2022-11-10T17:12:17.094Z,10.90
2022-11-10T17:15:03.676Z,10.80
2022-11-10T17:17:54.321Z,10.80
2022-11-10T17:20:43.809Z,10.80
2022-11-10T17:23:30.840Z,10.80
2022-11-10T17:26:19.181Z,10.80
2022-11-10T17:29:07.184Z,10.80
2022-11-10T17:31:54.160Z,10.70
2022-11-10T17:34:40.808Z,10.70
2022-11-10T17:37:27.698Z,10.70
2022-11-10T17:40:20.374Z,10.60
2022-11-10T17:43:07.159Z,10.60
2022-11-10T17:45:58.474Z,10.50
2022-11-10T17:48:47.009Z,10.50
2022-11-10T17:51:34.797Z,10.50
2022-11-10T17:54:22.453Z,10.50
2022-11-10T17:57:11.068Z,10.40
2022-11-10T17:59:58.249Z,10.40
2022-11-10T18:02:52.528Z,10.40
2022-11-10T18:05:41.619Z,10.40
2022-11-10T18:08:33.065Z,10.40
2022-11-10T18:11:20.207Z,10.40
2022-11-10T18:14:07.061Z,10.40
2022-11-10T18:16:53.697Z,10.30
2022-11-10T18:19:42.688Z,10.30
2022-11-10T18:22:29.290Z,10.30
2022-11-10T18:25:16.292Z,10.20
2022-11-10T18:28:02.915Z,10.20
2022-11-10T18:30:49.755Z,10.20
2022-11-10T18:33:38.117Z,10.20
2022-11-10T18:36:26.067Z,10.20
2022-11-10T18:39:12.594Z,10.10
2022-11-10T18:41:58.851Z,10.10
2022-11-10T18:44:45.278Z,10.10
2022-11-10T18:47:33.282Z,10.00
2022-11-10T18:50:20.525Z,10.00
2022-11-10T18:53:08.300Z,10.00
2022-11-10T18:55:55.683Z,9.90
2022-11-10T18:58:42.294Z,9.90
2022-11-10T19:01:30.380Z,9.90
2022-11-10T19:04:16.963Z,9.90
2022-11-10T19:07:03.379Z,9.80
2022-11-10T19:09:51.716Z,9.80
2022-11-10T19:12:38.593Z,9.80
2022-11-10T19:15:26.559Z,9.70
2022-11-10T19:18:12.914Z,9.70
2022-11-10T19:20:59.396Z,9.80
2022-11-10T19:23:46.085Z,9.70
2022-11-10T19:26:34.840Z,9.70
2022-11-10T19:29:22.417Z,9.70
2022-11-10T19:32:09.354Z,9.60
2022-11-10T19:34:55.831Z,9.60
2022-11-10T19:37:42.217Z,9.60
2022-11-10T19:40:28.790Z,9.60
2022-11-10T19:43:18.633Z,9.50
2022-11-10T19:46:06.702Z,9.50
2022-11-10T19:48:54.478Z,9.50
2022-11-10T19:51:41.489Z,9.50
2022-11-10T19:54:28.128Z,9.50
2022-11-10T19:57:14.633Z,9.50
2022-11-10T20:00:02.355Z,9.50
2022-11-10T20:02:48.970Z,9.40
2022-11-10T20:05:35.268Z,9.40
2022-11-10T20:08:21.788Z,9.40
2022-11-10T20:11:10.783Z,9.40
2022-11-10T20:13:59.403Z,9.40
2022-11-10T20:16:47.422Z,9.40
2022-11-10T20:19:41.197Z,9.40
2022-11-10T20:22:28.089Z,9.30
2022-11-10T20:25:14.926Z,9.30
2022-11-10T20:28:03.542Z,9.30
2022-11-10T20:30:49.982Z,9.30
2022-11-10T20:33:39.030Z,9.30
2022-11-10T20:36:33.965Z,9.20
2022-11-10T20:39:20.746Z,9.20
2022-11-10T20:42:07.244Z,9.20
2022-11-10T20:44:54.024Z,9.20
2022-11-10T20:47:42.687Z,9.20
2022-11-10T20:50:30.594Z,9.20
2022-11-10T20:53:17.111Z,9.10
2022-11-10T20:56:04.635Z,9.20
2022-11-10T20:58:52.370Z,9.10
2022-11-10T21:01:39.356Z,9.10
2022-11-10T21:04:26.230Z,9.10
2022-11-10T21:07:14.190Z,9.10
2022-11-10T21:10:00.826Z,9.10
2022-11-10T21:12:52.966Z,9.10
2022-11-10T21:15:42.604Z,9.10
2022-11-10T21:18:32.181Z,9.10
2022-11-10T21:21:34.080Z,9.00
2022-11-10T21:24:24.098Z,9.10
2022-11-10T21:27:11.604Z,9.00
2022-11-10T21:29:59.699Z,9.10
2022-11-10T21:32:46.803Z,9.10
2022-11-10T21:35:38.137Z,9.00
2022-11-10T21:38:26.458Z,8.80
2022-11-10T21:41:21.326Z,8.80
2022-11-10T21:44:08.053Z,8.80
2022-11-10T21:46:56.905Z,8.80
2022-11-10T21:49:43.291Z,8.80
2022-11-10T21:52:33.717Z,8.70
2022-11-10T21:55:20.281Z,8.70
2022-11-10T21:58:08.817Z,8.80
2022-11-10T22:01:03.392Z,8.70
2022-11-10T22:03:50.806Z,8.70
2022-11-10T22:06:56.073Z,8.70
2022-11-10T22:10:00.783Z,8.80
2022-11-10T22:13:09.104Z,8.70
2022-11-10T22:16:15.747Z,8.60
2022-11-10T22:19:02.879Z,8.60
2022-11-10T22:21:49.937Z,8.60
2022-11-10T22:24:40.528Z,8.60
2022-11-10T22:27:28.782Z,8.60
2022-11-10T22:30:19.815Z,8.70
2022-11-10T22:33:25.021Z,8.60
2022-11-10T22:36:17.180Z,8.60
2022-11-10T22:39:07.842Z,8.60
2022-11-10T22:42:17.136Z,8.60
2022-11-10T22:45:06.292Z,8.60
2022-11-10T22:48:13.432Z,8.60
2022-11-10T22:51:02.596Z,8.50
2022-11-10T22:53:53.121Z,8.50
2022-11-10T22:56:43.452Z,8.50
2022-11-10T22:59:34.855Z,8.50
2022-11-10T23:02:21.813Z,8.50
2022-11-10T23:05:09.925Z,8.50
2022-11-10T23:07:57.910Z,8.40
2022-11-10T23:10:50.484Z,8.40
2022-11-10T23:13:41.768Z,8.40
2022-11-10T23:16:34.039Z,8.50
2022-11-10T23:19:26.968Z,8.50
2022-11-10T23:22:14.741Z,8.50
2022-11-10T23:25:02.571Z,8.50
2022-11-10T23:27:49.864Z,8.50
2022-11-10T23:30:39.944Z,8.50
2022-11-10T23:36:37.900Z,8.50
2022-11-10T23:39:27.022Z,8.50
2022-11-10T23:45:32.863Z,8.40
2022-11-10T23:48:33.855Z,8.50
2022-11-10T23:51:20.752Z,8.50
2022-11-10T23:54:08.323Z,8.40
2022-11-10T23:56:54.793Z,8.40
2022-11-10T23:59:42.860Z,8.40
